AerodromSadržaj METAR izveštaja
LYBEMETAR LYBE 122100Z 08004KT CAVOK 11/05 Q1026 NOSIG=
LYBTMETAR LYBT 122100Z 07006KT 040V100 CAVOK 11/05 Q1027 NOSIG=
LYKVMETAR LYKV 122030Z VRB02KT 8000 NSC 04/04 Q1027 NOSIG=
LYNIMETAR LYNI 122030Z 10002KT 5000 BR NSC 05/02 Q1029 TEMPO 3000=
LYVRMETAR LYVR 122030Z 14019G32KT CAVOK 15/04 Q1027 NOSIG=
LYUZMETAR LYUZ 122030Z AUTO VRB01KT CAVOK 10/03 Q1027=
LYPGMETAR LYPG 122100Z 35005KT CAVOK 11/08 Q1027 NOSIG=
LYTVMETAR LYTV 122030Z VRB01KT CAVOK 08/07 Q1027=

Podaci učitani u: 2018-11-12 20:59:29 UTC

METAR, TAF, AIRMET, GAMET, SIGMET

Važna napomena: MET infоrmаciје nа оvim web strаnicаmа imајu infоrmаtivni kаrаktеr, nаmenjene su isključivo vаzduhоplоvnim kоrisnicima, nе smејu sе kоristiti zа bilо kоје kоmеrciјаlnе svrhе, i nе zаmеnjuјu dоkumеntаciјu zа lеt.